Bellevue, Canada
Current Conditions -  °F | °C
As of 5:00 PM on Friday 28 Nov 2014 (Local Time) from CYYT Reporting Station
Overcast Overcast  
Wind Chill: 23°   Ceiling: 1900
Heat Index: 32°   Visibility: 15mi
Dew Point: 30°   Wind: 13mph
Humidity: 93%   Direction: 50°NE
Pressure: 29.8"   Gusts: 20mph
Location:  47.63°N, 53.75°W
Report Text: CYYT 282000Z 05011G17KT 15SM SCT014 OVC019 M00/M01 A2980 RMK SC4SC4 PRESRR SLP098
Loading
Personal Weather Stations






























Interactive Weather Map New forecast layout! Learn more

10-Day Weather Forecast

Advertisements
Track Severe Weather on mobile